Time;durP1;ratioP1;P1;durP2;ratioP2;P2;SDS_P1;SDS_P2;PMS_P1;PMS_P2;Temp;Humidity;BMP_temperature;BMP_pressure;BME280_temperature;BME280_humidity;BME280_pressure;Samples;Min_cycle;Max_cycle;Signal;HPM_P1;HPM_P2
2022/05/15 00:01:59;;;;;;;7.57;6.00;;;;;;;;;;5031193;28;20232;-77
2022/05/15 00:04:26;;;;;;;6.03;5.43;;;;;;;;;;5031076;28;20256;-77
2022/05/15 00:06:54;;;;;;;8.00;5.80;;;;;;;;;;5032170;28;20263;-77
2022/05/15 00:09:21;;;;;;;7.07;5.80;;;;;;;;;;5032647;28;20298;-77
2022/05/15 00:11:50;;;;;;;6.07;5.47;;;;;;;;;;5031992;28;20264;-77
2022/05/15 00:14:17;;;;;;;6.10;5.50;;;;;;;;;;5030768;28;20252;-79
2022/05/15 00:16:45;;;;;;;5.53;5.03;;;;;;;;;;5034805;28;20205;-80
2022/05/15 00:19:12;;;;;;;5.93;5.33;;;;;;;;;;5033119;28;20206;-77
2022/05/15 00:21:40;;;;;;;5.67;5.17;;;;;;;;;;5031451;28;20309;-77
2022/05/15 00:24:08;;;;;;;6.17;5.57;;;;;;;;;;5030782;28;20553;-77
2022/05/15 00:26:35;;;;;;;6.20;5.23;;;;;;;;;;5031691;28;20233;-77
2022/05/15 00:29:04;;;;;;;5.40;4.90;;;;;;;;;;5031909;28;20259;-77
2022/05/15 00:31:32;;;;;;;5.33;4.80;;;;;;;;;;5029163;28;20249;-77
2022/05/15 00:33:59;;;;;;;5.50;5.00;;;;;;;;;;5031420;28;20217;-77
2022/05/15 00:36:26;;;;;;;6.23;5.33;;;;;;;;;;5031655;28;20256;-77
2022/05/15 00:38:53;;;;;;;5.80;5.20;;;;;;;;;;5030976;28;20253;-77
2022/05/15 00:41:21;;;;;;;5.40;4.90;;;;;;;;;;5031024;28;20225;-77
2022/05/15 00:43:49;;;;;;;7.63;4.57;;;;;;;;;;5030277;28;20228;-77
2022/05/15 00:46:20;;;;;;;5.63;5.13;;;;;;;;;;5031478;28;20201;-77
2022/05/15 00:48:48;;;;;;;4.73;4.17;;;;;;;;;;5031066;28;20202;-77
2022/05/15 00:51:20;;;;;;;4.83;4.43;;;;;;;;;;5030964;28;20222;-77
2022/05/15 00:53:49;;;;;;;5.43;4.10;;;;;;;;;;5030664;28;20221;-77
2022/05/15 00:56:17;;;;;;;4.70;3.90;;;;;;;;;;5031345;28;20267;-77
2022/05/15 00:58:47;;;;;;;4.93;4.53;;;;;;;;;;5031337;28;20225;-77
2022/05/15 01:01:15;;;;;;;4.90;4.50;;;;;;;;;;5031441;28;20291;-77
2022/05/15 01:03:45;;;;;;;5.60;4.50;;;;;;;;;;5030293;28;20280;-77
2022/05/15 01:06:12;;;;;;;4.70;4.20;;;;;;;;;;5035521;28;20216;-77
2022/05/15 01:08:39;;;;;;;5.90;4.30;;;;;;;;;;5035309;28;20201;-77
2022/05/15 01:11:10;;;;;;;5.20;4.10;;;;;;;;;;5034762;28;20267;-77
2022/05/15 01:13:39;;;;;;;4.80;4.30;;;;;;;;;;5033874;28;20205;-77
2022/05/15 01:16:06;;;;;;;5.83;5.10;;;;;;;;;;5034987;28;20202;-77
2022/05/15 01:18:35;;;;;;;5.27;4.33;;;;;;;;;;5035040;28;20201;-77
2022/05/15 01:21:05;;;;;;;4.40;4.00;;;;;;;;;;5034245;28;20272;-77
2022/05/15 01:23:33;;;;;;;4.30;3.90;;;;;;;;;;5034547;28;20229;-77
2022/05/15 01:26:00;;;;;;;4.50;4.10;;;;;;;;;;5034976;28;20206;-78
2022/05/15 01:28:28;;;;;;;6.20;4.27;;;;;;;;;;5034332;28;20256;-77
2022/05/15 01:30:57;;;;;;;4.70;4.30;;;;;;;;;;5035065;28;20226;-77
2022/05/15 01:33:27;;;;;;;6.23;4.67;;;;;;;;;;5036081;28;20198;-77
2022/05/15 01:35:54;;;;;;;4.50;4.10;;;;;;;;;;5036182;28;20206;-77
2022/05/15 01:38:23;;;;;;;6.57;5.50;;;;;;;;;;5034203;28;20206;-77
2022/05/15 01:40:51;;;;;;;6.70;6.00;;;;;;;;;;5034558;28;20222;-78
2022/05/15 01:43:18;;;;;;;5.73;5.10;;;;;;;;;;5034613;28;20221;-78
2022/05/15 01:45:46;;;;;;;6.17;5.57;;;;;;;;;;5033853;28;20234;-78
2022/05/15 01:48:13;;;;;;;6.17;5.30;;;;;;;;;;5034975;28;20217;-78
2022/05/15 01:50:40;;;;;;;5.30;4.80;;;;;;;;;;5034356;28;20222;-78
2022/05/15 01:53:08;;;;;;;5.80;5.30;;;;;;;;;;5033773;28;20209;-78
2022/05/15 01:55:36;;;;;;;5.00;4.60;;;;;;;;;;5033739;28;20202;-78
2022/05/15 01:58:04;;;;;;;5.60;5.03;;;;;;;;;;5034795;28;20585;-78
2022/05/15 02:00:31;;;;;;;6.57;5.20;;;;;;;;;;5034126;28;20258;-78
2022/05/15 02:02:58;;;;;;;5.60;4.30;;;;;;;;;;5034434;28;20209;-78
2022/05/15 02:05:26;;;;;;;5.27;4.77;;;;;;;;;;5034177;28;20209;-78
2022/05/15 02:07:54;;;;;;;6.47;4.73;;;;;;;;;;5034899;28;20233;-78
2022/05/15 02:10:21;;;;;;;4.93;4.23;;;;;;;;;;5033527;28;20206;-78
2022/05/15 02:12:50;;;;;;;5.33;4.77;;;;;;;;;;5034117;28;20205;-78
2022/05/15 02:15:23;;;;;;;5.03;4.53;;;;;;;;;;5032998;28;20202;-78
2022/05/15 02:17:52;;;;;;;5.37;4.87;;;;;;;;;;5033395;28;20205;-77
2022/05/15 02:20:20;;;;;;;5.30;4.80;;;;;;;;;;5034361;28;20198;-78
2022/05/15 02:22:47;;;;;;;5.97;5.00;;;;;;;;;;5033793;28;20194;-78
2022/05/15 02:25:15;;;;;;;4.60;4.07;;;;;;;;;;5028690;28;20221;-77
2022/05/15 02:27:43;;;;;;;4.70;4.30;;;;;;;;;;5033535;28;20202;-77
2022/05/15 02:30:12;;;;;;;5.10;4.60;;;;;;;;;;5034572;28;20202;-77
2022/05/15 02:32:40;;;;;;;4.67;4.20;;;;;;;;;;5032467;28;20222;-78
2022/05/15 02:35:08;;;;;;;5.13;4.47;;;;;;;;;;5030249;28;20202;-78
2022/05/15 02:37:35;;;;;;;4.80;4.37;;;;;;;;;;5033346;28;20202;-78
2022/05/15 02:40:03;;;;;;;6.43;5.00;;;;;;;;;;5049717;28;20244;-77
2022/05/15 02:42:30;;;;;;;4.60;4.20;;;;;;;;;;5051457;28;20236;-77
2022/05/15 02:44:57;;;;;;;4.93;4.30;;;;;;;;;;5038477;28;20214;-78
2022/05/15 02:47:29;;;;;;;4.90;4.40;;;;;;;;;;5033546;28;20205;-78
2022/05/15 02:52:41;;;;;;;6.20;4.50;;;;;;;;;;5033136;28;20269;-77
2022/05/15 02:55:08;;;;;;;4.97;4.47;;;;;;;;;;5033069;28;20202;-78
2022/05/15 02:57:35;;;;;;;5.13;4.33;;;;;;;;;;5032836;28;20210;-77
2022/05/15 03:00:03;;;;;;;5.47;4.97;;;;;;;;;;5032902;28;20202;-80
2022/05/15 03:02:32;;;;;;;4.90;4.43;;;;;;;;;;5033001;28;20225;-78
2022/05/15 03:04:59;;;;;;;5.57;4.90;;;;;;;;;;5032138;28;20337;-77
2022/05/15 03:07:26;;;;;;;5.40;4.90;;;;;;;;;;5033680;28;20276;-78
2022/05/15 03:09:54;;;;;;;4.90;4.50;;;;;;;;;;5032501;28;20201;-78
2022/05/15 03:12:21;;;;;;;5.37;4.40;;;;;;;;;;5032895;28;20217;-78
2022/05/15 03:14:48;;;;;;;5.70;5.20;;;;;;;;;;5032310;28;20271;-77
2022/05/15 03:17:16;;;;;;;6.00;4.80;;;;;;;;;;5033550;28;20202;-77
2022/05/15 03:19:45;;;;;;;5.33;4.87;;;;;;;;;;5032719;28;20204;-77
2022/05/15 03:22:12;;;;;;;5.10;4.70;;;;;;;;;;5032746;28;20731;-77
2022/05/15 03:24:39;;;;;;;5.23;4.57;;;;;;;;;;5032386;28;20217;-78
2022/05/15 03:27:07;;;;;;;5.43;4.97;;;;;;;;;;5033487;28;20212;-78
2022/05/15 03:29:34;;;;;;;5.40;4.30;;;;;;;;;;5033077;28;20198;-77
2022/05/15 03:32:01;;;;;;;4.90;4.47;;;;;;;;;;5033233;28;20229;-78
2022/05/15 03:34:28;;;;;;;4.83;4.40;;;;;;;;;;5032816;28;20198;-78
2022/05/15 03:36:57;;;;;;;5.27;4.77;;;;;;;;;;5033144;28;20674;-78
2022/05/15 03:39:24;;;;;;;6.00;5.27;;;;;;;;;;5032927;28;20213;-78
2022/05/15 03:41:52;;;;;;;5.10;4.60;;;;;;;;;;5034186;28;20238;-78
2022/05/15 03:44:20;;;;;;;7.43;4.47;;;;;;;;;;5029398;28;20221;-78
2022/05/15 03:46:47;;;;;;;5.73;5.13;;;;;;;;;;5033576;28;20202;-78
2022/05/15 03:49:14;;;;;;;5.80;5.13;;;;;;;;;;5032524;28;20206;-78
2022/05/15 03:51:42;;;;;;;7.07;4.80;;;;;;;;;;5032740;28;20214;-78
2022/05/15 03:54:11;;;;;;;5.17;4.77;;;;;;;;;;5032604;28;20209;-78
2022/05/15 03:56:52;;;;;;;5.27;4.77;;;;;;;;;;5032960;28;20232;-78
2022/05/15 03:59:20;;;;;;;5.37;4.50;;;;;;;;;;5032527;28;20247;-78
2022/05/15 04:01:48;;;;;;;4.70;4.30;;;;;;;;;;5065065;22;20314;-75
2022/05/15 04:04:16;;;;;;;5.10;4.60;;;;;;;;;;5077285;28;20261;-74
2022/05/15 04:06:43;;;;;;;4.73;4.33;;;;;;;;;;5088685;28;20803;-74
2022/05/15 04:09:12;;;;;;;4.83;4.43;;;;;;;;;;5080816;28;20242;-75
2022/05/15 04:11:39;;;;;;;5.37;4.90;;;;;;;;;;5061704;28;20217;-75
2022/05/15 04:14:07;;;;;;;5.00;4.60;;;;;;;;;;5066289;28;20213;-75
2022/05/15 04:16:34;;;;;;;5.10;4.60;;;;;;;;;;5062807;28;20201;-75
2022/05/15 04:19:02;;;;;;;6.37;4.30;;;;;;;;;;5067162;28;20222;-74
2022/05/15 04:21:30;;;;;;;6.03;4.40;;;;;;;;;;5057612;28;20224;-75
2022/05/15 04:23:57;;;;;;;5.37;4.87;;;;;;;;;;5059092;28;20232;-80
2022/05/15 04:26:26;;;;;;;4.60;4.20;;;;;;;;;;5067046;28;20204;-80
2022/05/15 04:28:53;;;;;;;4.50;4.10;;;;;;;;;;5064416;28;20212;-78
2022/05/15 04:31:20;;;;;;;5.63;4.73;;;;;;;;;;5066261;28;20223;-75
2022/05/15 04:33:47;;;;;;;5.33;4.83;;;;;;;;;;5065546;28;20236;-77
2022/05/15 04:36:15;;;;;;;5.03;4.30;;;;;;;;;;5054814;28;20215;-75
2022/05/15 04:38:42;;;;;;;4.57;4.10;;;;;;;;;;5060383;28;20264;-75
2022/05/15 04:41:09;;;;;;;4.47;4.07;;;;;;;;;;5064906;28;20224;-75
2022/05/15 04:43:38;;;;;;;5.93;4.93;;;;;;;;;;5065170;28;20215;-75
2022/05/15 04:46:07;;;;;;;5.80;4.20;;;;;;;;;;5065139;28;20274;-75
2022/05/15 04:48:34;;;;;;;4.77;4.37;;;;;;;;;;5065509;28;20197;-75
2022/05/15 04:51:02;;;;;;;5.97;4.47;;;;;;;;;;5063292;28;20205;-75
2022/05/15 04:53:29;;;;;;;5.90;4.27;;;;;;;;;;5062155;28;20201;-75
2022/05/15 04:55:56;;;;;;;5.87;4.30;;;;;;;;;;5062412;28;20232;-75
2022/05/15 04:58:23;;;;;;;4.40;4.00;;;;;;;;;;5060613;28;20258;-75
2022/05/15 05:00:52;;;;;;;4.70;4.30;;;;;;;;;;5065691;28;20208;-75
2022/05/15 05:03:20;;;;;;;5.43;4.80;;;;;;;;;;5062703;28;20254;-75
2022/05/15 05:05:47;;;;;;;5.20;4.70;;;;;;;;;;5063874;28;20347;-75
2022/05/15 05:08:15;;;;;;;4.90;4.50;;;;;;;;;;5058392;28;20197;-75
2022/05/15 05:10:42;;;;;;;5.07;4.57;;;;;;;;;;5064024;28;20251;-75
2022/05/15 05:13:10;;;;;;;4.53;4.13;;;;;;;;;;5065804;28;20221;-75
2022/05/15 05:15:37;;;;;;;4.97;4.40;;;;;;;;;;5064890;28;20196;-75
2022/05/15 05:18:06;;;;;;;4.30;3.90;;;;;;;;;;5064025;28;20296;-75
2022/05/15 05:20:33;;;;;;;5.97;4.00;;;;;;;;;;5057324;28;20201;-75
2022/05/15 05:23:00;;;;;;;4.20;3.70;;;;;;;;;;5063679;28;20217;-75
2022/05/15 05:25:28;;;;;;;5.40;4.67;;;;;;;;;;5063481;28;20297;-75
2022/05/15 05:27:55;;;;;;;6.63;4.63;;;;;;;;;;5064379;28;20205;-75
2022/05/15 05:30:24;;;;;;;5.00;4.60;;;;;;;;;;5060253;28;20197;-75
2022/05/15 05:32:51;;;;;;;5.13;4.70;;;;;;;;;;5063554;28;20224;-75
2022/05/15 05:35:22;;;;;;;5.23;4.70;;;;;;;;;;5060419;28;20189;-75
2022/05/15 05:37:49;;;;;;;5.13;4.63;;;;;;;;;;5062996;28;20250;-75
2022/05/15 05:40:18;;;;;;;5.60;4.93;;;;;;;;;;5064194;28;20207;-75
2022/05/15 05:42:45;;;;;;;5.10;4.40;;;;;;;;;;5061079;28;20279;-75
2022/05/15 05:45:13;;;;;;;4.63;4.27;;;;;;;;;;5064447;28;20219;-75
2022/05/15 05:47:40;;;;;;;4.53;4.13;;;;;;;;;;5062570;28;20207;-75
2022/05/15 05:50:09;;;;;;;4.83;4.33;;;;;;;;;;5060216;28;20213;-75
2022/05/15 05:52:38;;;;;;;4.30;4.00;;;;;;;;;;5064266;28;20246;-75
2022/05/15 05:55:06;;;;;;;4.47;4.07;;;;;;;;;;5060758;28;20208;-75
2022/05/15 05:57:34;;;;;;;4.43;4.00;;;;;;;;;;5062083;28;20255;-75
2022/05/15 06:00:01;;;;;;;5.80;4.53;;;;;;;;;;5062759;28;20224;-75
2022/05/15 06:02:28;;;;;;;4.50;4.10;;;;;;;;;;5063516;28;20499;-75
2022/05/15 06:04:54;;;;;;;5.03;4.57;;;;;;;;;;5064163;28;20244;-75
2022/05/15 06:07:25;;;;;;;5.33;4.10;;;;;;;;;;5060308;28;20612;-75
2022/05/15 06:09:57;;;;;;;4.37;3.93;;;;;;;;;;5059096;28;20330;-75
2022/05/15 06:12:25;;;;;;;3.97;3.67;;;;;;;;;;5063837;28;20244;-75
2022/05/15 06:14:56;;;;;;;4.60;3.60;;;;;;;;;;5059370;28;20200;-75
2022/05/15 06:17:23;;;;;;;5.83;3.80;;;;;;;;;;5063880;28;20209;-81
2022/05/15 06:19:53;;;;;;;3.80;3.50;;;;;;;;;;5067656;28;20269;-75
2022/05/15 06:22:20;;;;;;;3.80;3.50;;;;;;;;;;5060567;28;20317;-75
2022/05/15 06:24:47;;;;;;;4.40;3.73;;;;;;;;;;5072066;28;20212;-75
2022/05/15 06:27:16;;;;;;;3.30;3.00;;;;;;;;;;5061964;28;20221;-75
2022/05/15 06:29:43;;;;;;;3.83;3.30;;;;;;;;;;5063179;28;20201;-75
2022/05/15 06:32:11;;;;;;;3.63;3.20;;;;;;;;;;5055553;28;20717;-75
2022/05/15 06:34:38;;;;;;;4.67;3.50;;;;;;;;;;5068688;28;20192;-75
2022/05/15 06:37:06;;;;;;;3.37;2.87;;;;;;;;;;5058172;28;20205;-77
2022/05/15 06:39:33;;;;;;;3.30;3.00;;;;;;;;;;5077237;28;20253;-77
2022/05/15 06:42:01;;;;;;;3.53;3.15;;;;;;;;;;5075685;28;20220;-78
2022/05/15 06:44:30;;;;;;;5.90;3.55;;;;;;;;;;5057262;28;20682;-79
2022/05/15 06:46:57;;;;;;;6.45;3.00;;;;;;;;;;5062053;28;20212;-78
2022/05/15 06:49:24;;;;;;;4.47;3.35;;;;;;;;;;5071387;28;20587;-78
2022/05/15 06:51:52;;;;;;;3.90;3.47;;;;;;;;;;5056065;28;20224;-78
2022/05/15 06:54:25;;;;;;;3.90;3.60;;;;;;;;;;5054284;28;20239;-79
2022/05/15 06:59:41;;;;;;;3.97;3.30;;;;;;;;;;5056115;28;20204;-78
2022/05/15 07:02:08;;;;;;;3.60;3.17;;;;;;;;;;5063465;28;20240;-78
2022/05/15 07:04:35;;;;;;;5.80;3.83;;;;;;;;;;5059808;28;20208;-79
2022/05/15 07:07:03;;;;;;;4.15;3.47;;;;;;;;;;5063332;28;20208;-77
2022/05/15 07:09:30;;;;;;;3.88;3.50;;;;;;;;;;5059864;28;20633;-78
2022/05/15 07:11:57;;;;;;;4.35;3.22;;;;;;;;;;5062863;28;20225;-77
2022/05/15 07:14:25;;;;;;;3.40;3.10;;;;;;;;;;5079525;28;20293;-78
2022/05/15 07:16:54;;;;;;;3.38;2.90;;;;;;;;;;5067343;28;20201;-78
2022/05/15 07:19:21;;;;;;;3.25;2.80;;;;;;;;;;5080564;28;20205;-79
2022/05/15 07:21:48;;;;;;;3.58;2.88;;;;;;;;;;5072315;28;20217;-79
2022/05/15 07:24:16;;;;;;;3.38;2.72;;;;;;;;;;5067075;28;20205;-79
2022/05/15 07:26:45;;;;;;;3.60;2.70;;;;;;;;;;5058009;28;20224;-77
2022/05/15 07:29:12;;;;;;;3.35;2.70;;;;;;;;;;5073160;28;20211;-79
2022/05/15 07:31:41;;;;;;;3.67;2.70;;;;;;;;;;5073249;28;20255;-79
2022/05/15 07:34:16;;;;;;;3.83;2.60;;;;;;;;;;5065447;28;20333;-76
2022/05/15 07:36:50;;;;;;;4.07;2.50;;;;;;;;;;5061758;28;20200;-77
2022/05/15 07:39:17;;;;;;;3.42;2.60;;;;;;;;;;5063814;28;20199;-77
2022/05/15 07:41:45;;;;;;;3.13;2.63;;;;;;;;;;5061376;28;20229;-78
2022/05/15 07:44:12;;;;;;;3.22;2.85;;;;;;;;;;5057006;28;20204;-78
2022/05/15 07:46:40;;;;;;;3.65;2.67;;;;;;;;;;5055877;28;20217;-77
2022/05/15 07:49:07;;;;;;;3.30;2.63;;;;;;;;;;5058638;28;20207;-76
2022/05/15 07:51:37;;;;;;;2.97;2.10;;;;;;;;;;5060466;28;20221;-77
2022/05/15 07:54:04;;;;;;;2.67;2.47;;;;;;;;;;5062877;28;20205;-79
2022/05/15 07:56:32;;;;;;;3.38;2.40;;;;;;;;;;5060544;28;20202;-80
2022/05/15 07:58:59;;;;;;;3.85;2.95;;;;;;;;;;5061443;28;20196;-75
2022/05/15 08:01:26;;;;;;;3.13;2.38;;;;;;;;;;5057580;28;20232;-80
2022/05/15 08:03:54;;;;;;;3.55;2.20;;;;;;;;;;5059569;28;20197;-76
2022/05/15 08:09:08;;;;;;;4.30;2.20;;;;;;;;;;5053955;28;20192;-75
2022/05/15 08:11:36;;;;;;;3.10;2.45;;;;;;;;;;5057623;28;20221;-76
2022/05/15 08:14:04;;;;;;;5.22;2.40;;;;;;;;;;5060675;28;20239;-76
2022/05/15 08:16:35;;;;;;;2.38;2.17;;;;;;;;;;5059716;28;20205;-79
2022/05/15 08:24:33;;;;;;;2.58;2.20;;;;;;;;;;5062287;28;20216;-77
2022/05/15 08:27:01;;;;;;;2.85;2.33;;;;;;;;;;5055245;28;20224;-77
2022/05/15 08:29:28;;;;;;;3.75;2.20;;;;;;;;;;5059446;28;20197;-76
2022/05/15 08:31:55;;;;;;;3.60;2.15;;;;;;;;;;5051080;28;20217;-77
2022/05/15 08:34:23;;;;;;;3.47;3.08;;;;;;;;;;5052663;28;20203;-79
2022/05/15 08:36:51;;;;;;;3.03;2.60;;;;;;;;;;5058287;28;20193;-76
2022/05/15 08:39:19;;;;;;;3.47;2.45;;;;;;;;;;5061187;28;20618;-76
2022/05/15 08:41:49;;;;;;;2.50;2.30;;;;;;;;;;5055828;28;20236;-76
2022/05/15 08:44:18;;;;;;;3.33;2.47;;;;;;;;;;5055582;28;20204;-77
2022/05/15 08:47:00;;;;;;;3.35;2.20;;;;;;;;;;5055290;28;20236;-77
2022/05/15 08:49:31;;;;;;;3.00;2.20;;;;;;;;;;5059994;28;20208;-74
2022/05/15 08:52:02;;;;;;;2.60;2.10;;;;;;;;;;5060783;28;20278;-77
2022/05/15 08:54:29;;;;;;;3.10;2.10;;;;;;;;;;5053514;28;20208;-76
2022/05/15 08:57:01;;;;;;;4.28;2.30;;;;;;;;;;5058405;28;20201;-77
2022/05/15 08:59:29;;;;;;;2.45;2.25;;;;;;;;;;5055102;28;20208;-77
2022/05/15 09:01:58;;;;;;;4.40;2.88;;;;;;;;;;5063305;28;20235;-78
2022/05/15 09:04:26;;;;;;;4.50;2.20;;;;;;;;;;5062249;28;20254;-77
2022/05/15 09:07:02;;;;;;;2.83;2.08;;;;;;;;;;5060375;28;20221;-80
2022/05/15 09:09:32;;;;;;;3.78;2.30;;;;;;;;;;5057201;28;20205;-77
2022/05/15 09:12:04;;;;;;;3.53;2.40;;;;;;;;;;5053813;28;20217;-76
2022/05/15 09:14:49;;;;;;;2.42;2.22;;;;;;;;;;5058686;28;20196;-78
2022/05/15 09:17:19;;;;;;;2.80;2.10;;;;;;;;;;5051692;28;20235;-77
2022/05/15 09:19:49;;;;;;;2.90;2.17;;;;;;;;;;5065168;28;20201;-77
2022/05/15 09:22:17;;;;;;;2.88;2.03;;;;;;;;;;5056780;28;20312;-79
2022/05/15 09:24:51;;;;;;;3.13;2.20;;;;;;;;;;5054853;28;20205;-78
2022/05/15 09:27:20;;;;;;;2.97;2.00;;;;;;;;;;5064753;28;20581;-80
2022/05/15 09:29:54;;;;;;;4.88;3.15;;;;;;;;;;5064246;28;20206;-79
2022/05/15 09:32:36;;;;;;;4.03;2.20;;;;;;;;;;5057635;28;20220;-79
2022/05/15 09:35:04;;;;;;;3.63;2.20;;;;;;;;;;5059164;28;20215;-79
2022/05/15 09:40:21;;;;;;;3.38;2.55;;;;;;;;;;5062541;28;20576;-77
2022/05/15 09:45:40;;;;;;;3.45;2.08;;;;;;;;;;5057819;28;20242;-79
2022/05/15 09:48:12;;;;;;;3.80;2.30;;;;;;;;;;5071896;28;20201;-79
2022/05/15 09:50:41;;;;;;;2.65;2.10;;;;;;;;;;5057780;28;20296;-80
2022/05/15 09:53:12;;;;;;;3.10;2.47;;;;;;;;;;5080431;28;20231;-79
2022/05/15 09:55:40;;;;;;;3.45;2.20;;;;;;;;;;5066538;28;20224;-83
2022/05/15 09:58:20;;;;;;;4.28;2.05;;;;;;;;;;5064486;28;20320;-80
2022/05/15 10:00:48;;;;;;;3.90;2.30;;;;;;;;;;5066555;28;20200;-78
2022/05/15 10:03:20;;;;;;;3.97;2.30;;;;;;;;;;5076457;22;20236;-81
2022/05/15 10:05:57;;;;;;;2.30;1.92;;;;;;;;;;5064746;28;20247;-80
2022/05/15 10:08:25;;;;;;;3.28;2.10;;;;;;;;;;5065501;28;20208;-80
2022/05/15 10:10:55;;;;;;;4.70;1.70;;;;;;;;;;5065412;28;20209;-80
2022/05/15 10:13:28;;;;;;;2.40;2.00;;;;;;;;;;5055265;28;20255;-80
2022/05/15 10:16:02;;;;;;;3.20;1.70;;;;;;;;;;5062338;28;20199;-82
2022/05/15 10:18:31;;;;;;;3.60;1.80;;;;;;;;;;5068584;28;20215;-81
2022/05/15 10:20:58;;;;;;;2.40;1.80;;;;;;;;;;5062260;28;20197;-81
2022/05/15 10:23:28;;;;;;;4.07;2.00;;;;;;;;;;5060517;28;20224;-82
2022/05/15 10:25:59;;;;;;;3.03;1.90;;;;;;;;;;5059661;28;20228;-82
2022/05/15 10:28:35;;;;;;;1.85;1.65;;;;;;;;;;5060138;28;20226;-85
2022/05/15 10:31:06;;;;;;;1.65;1.55;;;;;;;;;;5053357;28;20208;-83
2022/05/15 10:33:36;;;;;;;3.72;2.00;;;;;;;;;;5047790;28;20258;-76
2022/05/15 10:36:05;;;;;;;2.78;1.80;;;;;;;;;;5047125;28;20205;-78
2022/05/15 10:38:40;;;;;;;2.30;1.50;;;;;;;;;;5050400;28;20212;-78
2022/05/15 10:41:13;;;;;;;3.05;1.90;;;;;;;;;;5047943;28;20208;-78
2022/05/15 10:43:46;;;;;;;2.47;1.83;;;;;;;;;;5047569;28;20217;-79
2022/05/15 10:46:19;;;;;;;3.30;1.90;;;;;;;;;;5045931;28;20257;-79
2022/05/15 10:48:50;;;;;;;3.28;2.00;;;;;;;;;;5055738;28;20312;-80
2022/05/15 10:51:21;;;;;;;2.65;1.85;;;;;;;;;;5055845;28;20255;-79
2022/05/15 10:59:47;;;;;;;3.22;2.08;;;;;;;;;;5044617;28;20224;-77
2022/05/15 11:02:32;;;;;;;2.05;1.90;;;;;;;;;;5044822;28;20236;-77
2022/05/15 11:05:03;;;;;;;2.83;1.77;;;;;;;;;;5006087;28;20198;-77
2022/05/15 11:07:36;;;;;;;2.55;1.90;;;;;;;;;;5044592;28;20221;-77
2022/05/15 11:10:08;;;;;;;3.78;2.20;;;;;;;;;;5049136;28;20201;-78
2022/05/15 11:12:40;;;;;;;2.55;1.75;;;;;;;;;;5043653;28;20230;-76
2022/05/15 11:15:19;;;;;;;3.05;2.03;;;;;;;;;;5040821;28;20201;-77
2022/05/15 11:17:51;;;;;;;2.55;1.83;;;;;;;;;;5041038;28;20220;-77
2022/05/15 11:20:21;;;;;;;2.15;1.92;;;;;;;;;;5043091;28;20208;-78
2022/05/15 11:22:50;;;;;;;3.72;2.15;;;;;;;;;;5043463;28;20248;-75
2022/05/15 11:25:19;;;;;;;2.30;2.00;;;;;;;;;;5046052;28;20204;-77
2022/05/15 11:27:49;;;;;;;3.90;2.17;;;;;;;;;;5044930;28;20233;-75
2022/05/15 11:30:21;;;;;;;2.30;1.98;;;;;;;;;;5052799;28;20283;-77
2022/05/15 11:33:03;;;;;;;3.55;1.90;;;;;;;;;;5051881;28;20228;-77
2022/05/15 11:35:33;;;;;;;4.07;2.10;;;;;;;;;;5046701;28;20219;-77
2022/05/15 11:38:11;;;;;;;3.92;2.00;;;;;;;;;;5059315;28;20659;-77
2022/05/15 11:40:42;;;;;;;3.25;1.80;;;;;;;;;;5051810;28;20205;-78
2022/05/15 11:43:28;;;;;;;3.00;1.90;;;;;;;;;;5052100;28;20225;-82
2022/05/15 11:45:58;;;;;;;4.38;2.20;;;;;;;;;;5049351;28;20200;-79
2022/05/15 11:48:27;;;;;;;3.17;2.00;;;;;;;;;;5046921;28;20587;-78
2022/05/15 11:50:56;;;;;;;2.40;2.00;;;;;;;;;;5044925;28;20201;-78
2022/05/15 11:53:29;;;;;;;2.30;2.10;;;;;;;;;;5046906;28;20224;-79
2022/05/15 11:55:56;;;;;;;2.65;2.00;;;;;;;;;;5046153;28;20205;-77
2022/05/15 11:58:27;;;;;;;2.00;1.80;;;;;;;;;;5046794;28;20201;-75
2022/05/15 12:01:02;;;;;;;2.50;1.83;;;;;;;;;;5042112;28;20217;-78
2022/05/15 12:03:42;;;;;;;2.47;1.95;;;;;;;;;;5039195;28;20233;-79
2022/05/15 12:06:10;;;;;;;3.08;1.98;;;;;;;;;;5038167;28;20212;-78
2022/05/15 12:08:38;;;;;;;3.00;2.10;;;;;;;;;;5049042;28;20263;-77
2022/05/15 12:11:23;;;;;;;2.42;1.90;;;;;;;;;;5043780;28;20219;-78
2022/05/15 12:13:52;;;;;;;2.50;2.17;;;;;;;;;;5040368;28;20201;-79
2022/05/15 12:16:28;;;;;;;2.78;2.08;;;;;;;;;;5050435;28;20208;-78
2022/05/15 12:19:00;;;;;;;2.10;1.90;;;;;;;;;;5050432;28;20200;-78
2022/05/15 12:21:35;;;;;;;3.13;2.10;;;;;;;;;;5048411;28;20201;-78
2022/05/15 12:26:50;;;;;;;2.22;2.00;;;;;;;;;;5051668;28;20224;-77
2022/05/15 12:29:27;;;;;;;2.30;1.83;;;;;;;;;;5047830;28;20247;-76
2022/05/15 12:31:57;;;;;;;2.72;2.05;;;;;;;;;;5046072;28;20293;-77
2022/05/15 12:34:28;;;;;;;2.95;2.00;;;;;;;;;;5049910;28;20205;-77
2022/05/15 12:36:58;;;;;;;2.90;1.75;;;;;;;;;;5046332;28;20197;-78
2022/05/15 12:39:27;;;;;;;3.60;2.13;;;;;;;;;;5050078;28;20201;-77
2022/05/15 12:41:55;;;;;;;2.72;2.03;;;;;;;;;;5047539;28;20318;-77
2022/05/15 12:44:29;;;;;;;2.90;2.00;;;;;;;;;;5046895;28;20197;-77
2022/05/15 12:47:00;;;;;;;2.45;2.00;;;;;;;;;;5046222;28;20729;-78
2022/05/15 12:49:33;;;;;;;2.40;1.85;;;;;;;;;;5047502;28;20198;-78
2022/05/15 12:52:11;;;;;;;3.05;2.00;;;;;;;;;;5047873;28;20237;-78
2022/05/15 12:54:38;;;;;;;2.20;2.00;;;;;;;;;;5046959;28;20208;-77
2022/05/15 12:57:08;;;;;;;2.53;2.00;;;;;;;;;;5048080;28;20216;-77
2022/05/15 12:59:36;;;;;;;2.67;1.70;;;;;;;;;;5048192;28;20199;-77
2022/05/15 13:02:16;;;;;;;2.70;1.98;;;;;;;;;;5053743;28;20228;-78
2022/05/15 13:04:46;;;;;;;2.38;1.90;;;;;;;;;;5047956;28;20220;-78
2022/05/15 13:07:13;;;;;;;2.45;2.10;;;;;;;;;;5053818;28;20837;-77
2022/05/15 13:09:40;;;;;;;2.25;1.80;;;;;;;;;;5052561;28;20214;-77
2022/05/15 13:12:12;;;;;;;2.33;1.67;;;;;;;;;;5054043;28;20271;-77
2022/05/15 13:14:45;;;;;;;2.58;1.95;;;;;;;;;;5052602;28;20205;-78
2022/05/15 13:17:13;;;;;;;2.25;1.70;;;;;;;;;;5054196;28;20205;-78
2022/05/15 13:19:45;;;;;;;3.03;1.90;;;;;;;;;;5052563;28;20227;-78
2022/05/15 13:22:22;;;;;;;5.50;2.00;;;;;;;;;;5048297;28;20222;-78
2022/05/15 13:24:49;;;;;;;2.50;2.30;;;;;;;;;;5050821;28;20205;-78
2022/05/15 13:27:18;;;;;;;2.15;1.88;;;;;;;;;;5050829;28;20253;-78
2022/05/15 13:29:46;;;;;;;2.72;1.95;;;;;;;;;;5051884;28;20288;-78
2022/05/15 13:32:15;;;;;;;2.30;1.75;;;;;;;;;;5056360;28;20228;-78
2022/05/15 13:34:45;;;;;;;2.50;1.77;;;;;;;;;;5055485;28;20201;-79
2022/05/15 13:37:26;;;;;;;2.42;1.90;;;;;;;;;;5056667;28;20221;-79
2022/05/15 13:45:47;;;;;;;2.00;1.80;;;;;;;;;;5054734;28;20250;-80
2022/05/15 13:48:15;;;;;;;2.60;1.77;;;;;;;;;;5056858;28;20197;-79
2022/05/15 13:50:47;;;;;;;1.88;1.55;;;;;;;;;;5056457;28;20201;-79
2022/05/15 13:53:19;;;;;;;2.20;2.00;;;;;;;;;;5056953;28;20226;-79
2022/05/15 13:55:49;;;;;;;2.53;1.70;;;;;;;;;;5054112;28;20219;-79
2022/05/15 13:58:16;;;;;;;2.30;1.80;;;;;;;;;;5054220;28;20297;-79
2022/05/15 14:00:43;;;;;;;2.70;1.83;;;;;;;;;;5058360;28;20216;-80
2022/05/15 14:03:12;;;;;;;1.90;1.70;;;;;;;;;;5055431;28;20230;-78
2022/05/15 14:05:40;;;;;;;2.17;2.08;;;;;;;;;;5053564;28;20230;-79
2022/05/15 14:08:20;;;;;;;2.63;1.80;;;;;;;;;;5053455;28;20224;-79
2022/05/15 14:10:48;;;;;;;3.80;1.80;;;;;;;;;;5053266;28;20207;-79
2022/05/15 14:13:16;;;;;;;2.08;1.70;;;;;;;;;;5055060;28;20217;-80
2022/05/15 14:15:45;;;;;;;3.08;2.20;;;;;;;;;;5056681;28;20208;-79
2022/05/15 14:18:14;;;;;;;2.08;1.60;;;;;;;;;;5056213;28;20248;-80
2022/05/15 14:20:49;;;;;;;1.70;1.60;;;;;;;;;;5053885;28;20239;-82
2022/05/15 14:23:23;;;;;;;2.35;2.15;;;;;;;;;;5060924;28;20231;-78
2022/05/15 14:25:52;;;;;;;4.07;1.70;;;;;;;;;;5064825;28;20200;-78
2022/05/15 14:28:19;;;;;;;2.70;2.08;;;;;;;;;;5063594;28;20208;-78
2022/05/15 14:30:48;;;;;;;1.70;1.60;;;;;;;;;;5063690;28;20205;-78
2022/05/15 14:33:19;;;;;;;2.75;1.80;;;;;;;;;;5061468;28;20224;-78
2022/05/15 14:35:51;;;;;;;2.83;1.92;;;;;;;;;;5060256;28;20192;-78
2022/05/15 14:38:24;;;;;;;2.15;1.50;;;;;;;;;;5060661;28;20243;-77
2022/05/15 14:40:51;;;;;;;1.70;1.60;;;;;;;;;;5061132;28;20216;-78
2022/05/15 14:43:19;;;;;;;2.30;1.50;;;;;;;;;;5063872;28;20282;-78
2022/05/15 14:45:47;;;;;;;1.50;1.40;;;;;;;;;;5059373;28;20204;-78
2022/05/15 14:51:26;;;;;;;1.70;1.60;;;;;;;;;;5050229;28;20207;-78
2022/05/15 14:57:12;;;;;;;2.15;1.70;;;;;;;;;;5052671;28;20263;-78
2022/05/15 14:59:43;;;;;;;1.63;1.52;;;;;;;;;;5038738;28;20237;-78
2022/05/15 15:02:14;;;;;;;1.90;1.70;;;;;;;;;;5047904;28;20239;-78
2022/05/15 15:04:49;;;;;;;2.95;1.95;;;;;;;;;;5046034;28;20266;-82
2022/05/15 15:07:16;;;;;;;2.63;1.70;;;;;;;;;;5055408;28;20192;-79
2022/05/15 15:09:45;;;;;;;2.10;1.77;;;;;;;;;;5052881;28;20315;-79
2022/05/15 15:12:14;;;;;;;4.03;1.83;;;;;;;;;;5054214;28;20221;-78
2022/05/15 15:14:42;;;;;;;1.80;1.65;;;;;;;;;;5056821;28;20215;-79
2022/05/15 15:17:12;;;;;;;1.90;1.70;;;;;;;;;;5057603;28;20205;-79
2022/05/15 15:19:43;;;;;;;2.08;1.73;;;;;;;;;;5058495;28;20212;-78
2022/05/15 15:22:10;;;;;;;2.75;1.77;;;;;;;;;;5058438;28;20255;-78
2022/05/15 15:24:38;;;;;;;1.92;1.50;;;;;;;;;;5059495;28;20205;-78
2022/05/15 15:27:05;;;;;;;1.83;1.60;;;;;;;;;;5060619;28;20295;-79
2022/05/15 15:29:36;;;;;;;2.85;1.70;;;;;;;;;;5060239;28;20203;-79
2022/05/15 15:32:03;;;;;;;3.42;1.63;;;;;;;;;;5059635;28;20640;-78
2022/05/15 15:34:39;;;;;;;1.90;1.73;;;;;;;;;;5059296;28;20209;-78
2022/05/15 15:39:51;;;;;;;1.55;1.40;;;;;;;;;;5051971;28;20281;-76